createdAt,value
2017-08-10T00:01:40.253Z,73.10
2017-08-10T00:04:08.688Z,72.20
2017-08-10T00:06:38.039Z,72.60
2017-08-10T00:09:07.620Z,73.70
2017-08-10T00:11:36.063Z,73.40
2017-08-10T00:14:04.417Z,72.60
2017-08-10T00:16:34.293Z,72.60
2017-08-10T00:19:06.424Z,73.20
2017-08-10T00:21:34.894Z,73.20
2017-08-10T00:24:05.019Z,72.80
2017-08-10T00:26:33.360Z,73.10
2017-08-10T00:29:02.603Z,72.10
2017-08-10T00:31:32.249Z,72.40
2017-08-10T00:34:03.476Z,72.10
2017-08-10T00:36:32.383Z,72.10
2017-08-10T00:39:02.509Z,71.90
2017-08-10T00:41:31.837Z,72.10
2017-08-10T00:44:00.188Z,72.20
2017-08-10T00:46:30.777Z,72.60
2017-08-10T00:48:59.206Z,72.50
2017-08-10T00:51:27.472Z,71.20
2017-08-10T00:53:55.691Z,72.90
2017-08-10T00:56:25.581Z,72.60
2017-08-10T00:58:55.131Z,72.80
2017-08-10T01:01:23.476Z,72.50
2017-08-10T01:03:51.759Z,72.40
2017-08-10T01:06:20.044Z,73.20
2017-08-10T01:08:48.845Z,72.70
2017-08-10T01:11:17.097Z,72.20
2017-08-10T01:13:45.707Z,72.30
2017-08-10T01:16:14.797Z,72.90
2017-08-10T01:18:44.307Z,73.20
2017-08-10T01:21:12.606Z,72.20
2017-08-10T01:23:41.006Z,73.40
2017-08-10T01:26:11.080Z,73.50
2017-08-10T01:28:39.409Z,74.10
2017-08-10T01:31:07.784Z,73.40
2017-08-10T01:33:36.038Z,72.50
2017-08-10T01:36:04.455Z,72.80
2017-08-10T01:38:36.303Z,72.50
2017-08-10T01:41:06.065Z,70.50
2017-08-10T01:43:35.113Z,71.80
2017-08-10T01:46:04.068Z,72.60
2017-08-10T01:48:32.486Z,72.60
2017-08-10T01:51:00.952Z,73.00
2017-08-10T01:53:29.655Z,73.50
2017-08-10T01:55:59.955Z,74.30
2017-08-10T01:58:28.344Z,74.90
2017-08-10T02:00:56.679Z,74.80
2017-08-10T02:03:25.375Z,74.00
2017-08-10T02:05:53.816Z,73.70
2017-08-10T02:08:22.176Z,73.60
2017-08-10T02:10:50.420Z,73.40
2017-08-10T02:13:18.739Z,74.20
2017-08-10T02:15:46.979Z,75.30
2017-08-10T02:18:16.301Z,75.70
2017-08-10T02:20:47.311Z,76.50
2017-08-10T02:23:16.784Z,77.10
2017-08-10T02:25:45.021Z,77.20
2017-08-10T02:28:13.286Z,76.60
2017-08-10T02:30:42.042Z,77.50
2017-08-10T02:33:10.719Z,78.40
2017-08-10T02:35:39.130Z,78.20
2017-08-10T02:38:09.248Z,78.40
2017-08-10T02:40:37.557Z,78.80
2017-08-10T02:43:05.982Z,79.90
2017-08-10T02:45:35.550Z,79.00
2017-08-10T02:48:05.333Z,78.70
2017-08-10T02:50:33.761Z,78.50
2017-08-10T02:53:02.054Z,78.70
2017-08-10T02:55:30.333Z,79.30
2017-08-10T02:57:58.658Z,79.30
2017-08-10T03:00:27.769Z,78.80
2017-08-10T03:02:56.223Z,78.20
2017-08-10T03:05:24.468Z,78.70
2017-08-10T03:07:52.908Z,78.70
2017-08-10T03:10:21.183Z,75.60
2017-08-10T03:12:50.445Z,75.10
2017-08-10T03:15:18.783Z,73.90
2017-08-10T03:17:47.229Z,73.70
2017-08-10T03:20:15.612Z,73.50
2017-08-10T03:22:43.995Z,73.30
2017-08-10T03:25:13.093Z,72.70
2017-08-10T03:27:44.132Z,72.20
2017-08-10T03:30:13.461Z,72.60
2017-08-10T03:32:41.800Z,72.50
2017-08-10T03:35:10.193Z,73.30
2017-08-10T03:37:38.445Z,73.20
2017-08-10T03:40:06.751Z,73.40
2017-08-10T03:42:35.044Z,72.90
2017-08-10T03:45:03.327Z,73.00
2017-08-10T03:47:31.917Z,73.40
2017-08-10T03:50:00.326Z,73.30
2017-08-10T03:52:28.745Z,72.90
2017-08-10T03:54:58.542Z,73.00
2017-08-10T03:57:26.959Z,73.80
2017-08-10T03:59:55.282Z,73.70
2017-08-10T04:02:23.773Z,74.80
2017-08-10T04:04:52.121Z,75.30
2017-08-10T04:07:20.427Z,74.70
2017-08-10T04:09:48.727Z,74.30
2017-08-10T04:12:17.545Z,74.30
2017-08-10T04:14:45.853Z,75.10
2017-08-10T04:17:14.438Z,75.20
2017-08-10T04:19:42.741Z,75.30
2017-08-10T04:22:11.074Z,75.80
2017-08-10T04:24:40.632Z,74.50
2017-08-10T04:27:08.878Z,74.10
2017-08-10T04:29:37.132Z,74.60
2017-08-10T04:32:05.435Z,75.00
2017-08-10T04:34:33.746Z,74.50
2017-08-10T04:37:02.129Z,75.30
2017-08-10T04:39:30.333Z,75.80
2017-08-10T04:41:58.615Z,75.10
2017-08-10T04:44:26.857Z,75.10
2017-08-10T04:46:55.117Z,76.00
2017-08-10T04:49:23.366Z,76.30
2017-08-10T04:51:51.642Z,76.60
2017-08-10T04:54:20.870Z,77.30
2017-08-10T04:56:49.179Z,77.50
2017-08-10T04:59:17.426Z,76.70
2017-08-10T05:01:45.726Z,76.90
2017-08-10T05:04:13.974Z,76.00
2017-08-10T05:06:42.277Z,76.50
2017-08-10T05:09:10.509Z,76.00
2017-08-10T05:11:38.841Z,76.40
2017-08-10T05:14:07.154Z,76.90
2017-08-10T05:16:36.627Z,76.70
2017-08-10T05:19:04.868Z,77.20
2017-08-10T05:21:33.301Z,76.60
2017-08-10T05:24:01.622Z,76.80
2017-08-10T05:26:29.930Z,76.60
2017-08-10T05:28:58.162Z,76.30
2017-08-10T05:31:26.492Z,76.40
2017-08-10T05:33:55.034Z,76.10
2017-08-10T05:36:23.349Z,75.70
2017-08-10T05:38:52.075Z,75.80
2017-08-10T05:41:21.492Z,75.30
2017-08-10T05:43:49.918Z,74.60
2017-08-10T05:46:18.133Z,74.20
2017-08-10T05:48:47.246Z,74.60
2017-08-10T05:51:15.614Z,74.50
2017-08-10T05:53:43.917Z,74.80
2017-08-10T05:56:12.237Z,75.30
2017-08-10T05:58:40.645Z,75.80
2017-08-10T06:01:08.934Z,75.70
2017-08-10T06:03:37.482Z,75.80
2017-08-10T06:06:07.102Z,75.90
2017-08-10T06:08:36.086Z,75.50
2017-08-10T06:11:04.403Z,76.00
2017-08-10T06:13:32.711Z,74.50
2017-08-10T06:16:01.035Z,73.80
2017-08-10T06:18:29.290Z,73.80
2017-08-10T06:20:57.529Z,74.50
2017-08-10T06:23:25.865Z,75.60
2017-08-10T06:25:55.089Z,75.50
2017-08-10T06:28:23.344Z,75.40
2017-08-10T06:30:51.682Z,74.70
2017-08-10T06:33:20.369Z,75.20
2017-08-10T06:35:48.670Z,76.30
2017-08-10T06:38:16.910Z,76.20
2017-08-10T06:40:45.227Z,76.80
2017-08-10T06:43:13.495Z,76.50
2017-08-10T06:45:42.797Z,75.80
2017-08-10T06:48:11.045Z,76.70
2017-08-10T06:50:39.268Z,76.90
2017-08-10T06:53:07.600Z,75.80
2017-08-10T06:55:35.872Z,76.20
2017-08-10T06:58:04.180Z,74.90
2017-08-10T07:00:32.454Z,74.60
2017-08-10T07:03:00.708Z,74.60
2017-08-10T07:05:29.956Z,75.60
2017-08-10T07:07:58.219Z,77.00
2017-08-10T07:10:26.496Z,76.70
2017-08-10T07:12:54.827Z,72.90
2017-08-10T07:15:23.062Z,74.80
2017-08-10T07:17:52.701Z,75.90
2017-08-10T07:20:20.973Z,76.10
2017-08-10T07:22:49.883Z,75.50
2017-08-10T07:25:18.842Z,75.20
2017-08-10T07:27:47.818Z,74.40
2017-08-10T07:30:16.128Z,75.10
2017-08-10T07:32:44.680Z,74.20
2017-08-10T07:35:14.831Z,74.60
2017-08-10T07:37:43.068Z,74.70
2017-08-10T07:40:11.346Z,75.50
2017-08-10T07:42:39.608Z,75.90
2017-08-10T07:45:08.637Z,76.00
2017-08-10T07:47:36.992Z,76.20
2017-08-10T07:50:05.767Z,76.30
2017-08-10T07:52:34.458Z,76.00
2017-08-10T07:55:03.164Z,75.70
2017-08-10T07:57:32.314Z,75.70
2017-08-10T08:00:01.337Z,75.40
2017-08-10T08:02:31.701Z,76.10
2017-08-10T08:05:00.579Z,76.50
2017-08-10T08:07:28.989Z,75.50
2017-08-10T08:09:57.335Z,76.50
2017-08-10T08:12:25.585Z,77.50
2017-08-10T08:14:53.829Z,77.80
2017-08-10T08:17:22.531Z,77.60
2017-08-10T08:19:50.813Z,78.00
2017-08-10T08:22:19.044Z,78.40
2017-08-10T08:24:47.293Z,78.40
2017-08-10T08:27:15.557Z,78.00
2017-08-10T08:29:43.789Z,77.20
2017-08-10T08:32:12.067Z,77.90
2017-08-10T08:34:40.419Z,78.50
2017-08-10T08:37:08.825Z,79.30
2017-08-10T08:39:37.880Z,79.60
2017-08-10T08:42:06.300Z,78.70
2017-08-10T08:44:34.589Z,79.90
2017-08-10T08:47:02.850Z,80.50
2017-08-10T08:49:31.101Z,79.40
2017-08-10T08:51:59.386Z,79.10
2017-08-10T08:54:28.877Z,79.00
2017-08-10T08:56:57.810Z,79.60
2017-08-10T08:59:26.019Z,80.40
2017-08-10T09:01:54.301Z,81.30
2017-08-10T09:04:22.563Z,81.30
2017-08-10T09:06:50.825Z,81.40
2017-08-10T09:09:19.454Z,80.90
2017-08-10T09:11:47.718Z,81.30
2017-08-10T09:14:15.973Z,81.00
2017-08-10T09:16:44.276Z,80.80
2017-08-10T09:19:12.620Z,80.90
2017-08-10T09:21:40.932Z,81.30
2017-08-10T09:24:09.164Z,80.10
2017-08-10T09:26:37.431Z,80.70
2017-08-10T09:29:05.734Z,81.00
2017-08-10T09:31:33.987Z,80.80
2017-08-10T09:34:02.276Z,80.40
2017-08-10T09:36:30.530Z,79.70
2017-08-10T09:38:58.778Z,76.50
2017-08-10T09:41:27.099Z,75.80
2017-08-10T09:43:55.322Z,77.80
2017-08-10T09:46:23.661Z,78.90
2017-08-10T09:48:51.920Z,78.50
2017-08-10T09:51:20.182Z,78.80
2017-08-10T09:53:48.462Z,78.70
2017-08-10T09:56:16.715Z,77.90
2017-08-10T09:58:44.997Z,76.90
2017-08-10T10:01:13.298Z,75.50
2017-08-10T10:03:41.655Z,76.60
2017-08-10T10:06:09.989Z,76.80
2017-08-10T10:08:38.274Z,77.10
2017-08-10T10:11:07.210Z,76.80
2017-08-10T10:13:35.474Z,77.40
2017-08-10T10:16:03.686Z,77.50
2017-08-10T10:18:32.661Z,77.70
2017-08-10T10:21:01.554Z,77.00
2017-08-10T10:23:30.439Z,77.00
2017-08-10T10:26:00.049Z,76.90
2017-08-10T10:28:29.345Z,76.60
2017-08-10T10:30:57.632Z,75.50
2017-08-10T10:33:25.955Z,75.70
2017-08-10T10:35:54.233Z,75.20
2017-08-10T10:38:22.517Z,74.80
2017-08-10T10:40:50.769Z,75.30
2017-08-10T10:43:19.108Z,75.20
2017-08-10T10:45:47.433Z,75.00
2017-08-10T10:48:15.776Z,75.50
2017-08-10T10:50:44.619Z,74.90
2017-08-10T10:53:12.874Z,75.00
2017-08-10T10:55:41.131Z,75.00
2017-08-10T10:58:09.565Z,75.30
2017-08-10T11:00:37.848Z,75.60
2017-08-10T11:03:06.167Z,75.00
2017-08-10T11:05:36.744Z,75.50
2017-08-10T11:08:05.064Z,75.30
2017-08-10T11:10:34.278Z,75.80
2017-08-10T11:13:02.603Z,76.50
2017-08-10T11:15:30.915Z,76.10
2017-08-10T11:17:59.195Z,76.00
2017-08-10T11:20:27.532Z,76.30
2017-08-10T11:22:55.771Z,76.80
2017-08-10T11:25:24.746Z,77.10
2017-08-10T11:27:52.966Z,77.00
2017-08-10T11:30:21.239Z,77.70
2017-08-10T11:32:49.587Z,77.30
2017-08-10T11:35:17.849Z,77.40
2017-08-10T11:37:46.157Z,77.40
2017-08-10T11:40:14.393Z,77.80
2017-08-10T11:42:42.652Z,77.50
2017-08-10T11:45:10.948Z,77.80
2017-08-10T11:47:39.287Z,77.80
2017-08-10T11:50:07.568Z,79.00
2017-08-10T11:52:35.806Z,78.90
2017-08-10T11:55:04.098Z,78.30
2017-08-10T11:57:32.424Z,78.20
2017-08-10T12:00:00.681Z,78.70
2017-08-10T12:02:28.946Z,79.00
2017-08-10T12:04:57.642Z,78.40
2017-08-10T12:07:25.911Z,79.00
2017-08-10T12:09:54.154Z,79.10
2017-08-10T12:12:22.401Z,79.00
2017-08-10T12:14:50.677Z,79.30
2017-08-10T12:17:18.969Z,79.50
2017-08-10T12:19:47.218Z,80.10
2017-08-10T12:22:15.467Z,80.00
2017-08-10T12:24:43.751Z,80.20
2017-08-10T12:27:12.028Z,80.40
2017-08-10T12:29:40.289Z,79.90
2017-08-10T12:32:08.687Z,79.80
2017-08-10T12:34:36.933Z,79.60
2017-08-10T12:37:05.261Z,80.60
2017-08-10T12:39:33.509Z,80.10
2017-08-10T12:42:01.824Z,80.40
2017-08-10T12:44:30.098Z,80.90
2017-08-10T12:46:58.348Z,81.30
2017-08-10T12:49:26.653Z,80.90
2017-08-10T12:51:54.900Z,81.30
2017-08-10T12:54:23.176Z,80.80
2017-08-10T12:56:52.536Z,81.10
2017-08-10T12:59:20.814Z,81.20
2017-08-10T13:01:49.106Z,81.40
2017-08-10T13:04:17.510Z,80.80
2017-08-10T13:06:45.763Z,80.40
2017-08-10T13:09:14.069Z,80.90
2017-08-10T13:11:42.325Z,81.30
2017-08-10T13:14:10.576Z,80.50
2017-08-10T13:16:38.862Z,79.60
2017-08-10T13:19:08.176Z,80.30
2017-08-10T13:21:36.525Z,80.10
2017-08-10T13:24:04.807Z,79.90
2017-08-10T13:26:33.106Z,79.10
2017-08-10T13:29:01.359Z,79.50
2017-08-10T13:31:29.631Z,79.00
2017-08-10T13:33:57.925Z,78.90
2017-08-10T13:36:26.201Z,79.10
2017-08-10T13:38:54.780Z,79.10
2017-08-10T13:41:23.055Z,78.90
2017-08-10T13:43:51.344Z,79.00
2017-08-10T13:46:19.597Z,79.70
2017-08-10T13:48:47.925Z,79.90
2017-08-10T13:51:16.198Z,79.60
2017-08-10T13:53:44.510Z,80.00
2017-08-10T13:56:12.791Z,79.70
2017-08-10T13:58:41.042Z,79.70
2017-08-10T14:01:09.276Z,79.00
2017-08-10T14:03:37.516Z,78.80
2017-08-10T14:06:05.825Z,78.70
2017-08-10T14:08:34.074Z,78.90
2017-08-10T14:11:02.382Z,79.50
2017-08-10T14:13:30.639Z,79.60
2017-08-10T14:15:58.869Z,80.20
2017-08-10T14:18:27.147Z,80.60
2017-08-10T14:20:55.388Z,80.70
2017-08-10T14:23:23.676Z,81.00
2017-08-10T14:25:51.930Z,81.10
2017-08-10T14:28:20.259Z,81.70
2017-08-10T14:30:48.502Z,81.70
2017-08-10T14:33:16.739Z,82.10
2017-08-10T14:35:45.102Z,82.40
2017-08-10T14:38:13.323Z,82.10
2017-08-10T14:40:41.564Z,82.60
2017-08-10T14:43:09.833Z,82.10
2017-08-10T14:45:38.054Z,82.10
2017-08-10T14:48:06.291Z,82.10
2017-08-10T14:50:34.538Z,81.50
2017-08-10T14:53:02.797Z,81.60
2017-08-10T14:55:31.068Z,81.60
2017-08-10T14:58:00.000Z,81.90
2017-08-10T15:00:28.224Z,81.80
2017-08-10T15:02:56.912Z,82.50
2017-08-10T15:05:25.245Z,82.50
2017-08-10T15:07:53.485Z,82.30
2017-08-10T15:10:21.765Z,81.40
2017-08-10T15:12:50.048Z,81.30
2017-08-10T15:15:18.292Z,81.60
2017-08-10T15:17:46.535Z,82.30
2017-08-10T15:20:14.829Z,82.70
2017-08-10T15:22:43.122Z,82.90
2017-08-10T15:25:11.345Z,82.90
2017-08-10T15:27:39.646Z,82.70
2017-08-10T15:30:07.888Z,82.20
2017-08-10T15:32:36.173Z,82.40
2017-08-10T15:35:04.480Z,82.40
2017-08-10T15:37:32.826Z,81.90
2017-08-10T15:40:01.033Z,81.50
2017-08-10T15:42:29.297Z,81.70
2017-08-10T15:44:57.525Z,80.40
2017-08-10T15:47:25.783Z,81.10
2017-08-10T15:49:55.099Z,81.00
2017-08-10T15:52:23.349Z,81.30
2017-08-10T15:54:51.659Z,81.90
2017-08-10T15:57:20.003Z,81.30
2017-08-10T15:59:48.299Z,81.10
2017-08-10T16:02:16.581Z,80.60
2017-08-10T16:04:44.930Z,81.40
2017-08-10T16:07:13.226Z,81.90
2017-08-10T16:09:41.503Z,81.80
2017-08-10T16:12:09.836Z,82.00
2017-08-10T16:14:38.162Z,82.20
2017-08-10T16:17:06.444Z,81.90
2017-08-10T16:19:34.695Z,81.60
2017-08-10T16:22:03.112Z,81.20
2017-08-10T16:24:31.391Z,81.40
2017-08-10T16:26:59.680Z,81.20
2017-08-10T16:29:27.954Z,81.80
2017-08-10T16:31:56.282Z,81.40
2017-08-10T16:34:24.530Z,80.80
2017-08-10T16:36:52.801Z,80.80
2017-08-10T16:39:22.027Z,81.00
2017-08-10T16:41:50.306Z,80.70
2017-08-10T16:44:18.593Z,80.10
2017-08-10T16:46:46.860Z,80.60
2017-08-10T16:49:15.168Z,80.50
2017-08-10T16:51:43.390Z,80.20
2017-08-10T16:54:11.669Z,80.80
2017-08-10T16:56:40.037Z,80.60
2017-08-10T16:59:08.357Z,80.50
2017-08-10T17:01:36.720Z,80.40
2017-08-10T17:04:04.962Z,80.50
2017-08-10T17:06:33.232Z,80.10
2017-08-10T17:09:01.507Z,80.20
2017-08-10T17:11:29.755Z,80.80
2017-08-10T17:13:58.637Z,80.70
2017-08-10T17:16:26.868Z,80.60
2017-08-10T17:18:55.117Z,80.50
2017-08-10T17:21:23.366Z,81.40
2017-08-10T17:23:51.672Z,81.00
2017-08-10T17:26:19.915Z,80.90
2017-08-10T17:28:48.244Z,80.40
2017-08-10T17:31:16.483Z,80.30
2017-08-10T17:33:44.816Z,80.20
2017-08-10T17:36:13.055Z,79.70
2017-08-10T17:38:42.169Z,79.60
2017-08-10T17:41:10.508Z,79.70
2017-08-10T17:43:38.725Z,80.00
2017-08-10T17:46:07.042Z,80.30
2017-08-10T17:48:35.299Z,80.40
2017-08-10T17:51:03.554Z,80.00
2017-08-10T17:53:31.835Z,80.00
2017-08-10T17:56:00.120Z,80.60
2017-08-10T17:58:28.373Z,80.20
2017-08-10T18:01:00.083Z,79.10
2017-08-10T18:03:24.974Z,79.00
2017-08-10T18:05:53.311Z,80.40
2017-08-10T18:08:21.560Z,79.30
2017-08-10T18:10:49.808Z,79.20
2017-08-10T18:13:18.048Z,79.30
2017-08-10T18:15:46.295Z,78.90
2017-08-10T18:18:14.566Z,78.50
2017-08-10T18:20:42.797Z,78.10
2017-08-10T18:23:11.032Z,78.00
2017-08-10T18:25:39.303Z,77.50
2017-08-10T18:28:07.538Z,77.30
2017-08-10T18:30:35.801Z,77.70
2017-08-10T18:33:04.114Z,77.40
2017-08-10T18:35:32.357Z,77.60
2017-08-10T18:38:00.604Z,77.80
2017-08-10T18:40:28.838Z,77.20
2017-08-10T18:42:57.168Z,77.90
2017-08-10T18:45:25.489Z,77.60
2017-08-10T18:47:53.775Z,78.00
2017-08-10T18:50:22.010Z,78.40
2017-08-10T18:52:50.276Z,78.50
2017-08-10T18:55:18.494Z,78.30
2017-08-10T18:57:46.749Z,78.40
2017-08-10T19:00:15.013Z,78.50
2017-08-10T19:02:43.253Z,78.60
2017-08-10T19:05:11.554Z,78.30
2017-08-10T19:07:39.841Z,78.30
2017-08-10T19:10:08.072Z,79.00
2017-08-10T19:12:36.363Z,78.50
2017-08-10T19:15:04.640Z,78.60
2017-08-10T19:17:32.875Z,78.60
2017-08-10T19:20:01.117Z,77.90
2017-08-10T19:22:29.524Z,77.40
2017-08-10T19:24:57.797Z,77.40
2017-08-10T19:27:26.025Z,77.60
2017-08-10T19:29:54.278Z,77.50
2017-08-10T19:32:22.535Z,77.90
2017-08-10T19:34:50.789Z,77.30
2017-08-10T19:37:19.040Z,77.20
2017-08-10T19:39:47.695Z,77.30
2017-08-10T19:42:15.955Z,77.50
2017-08-10T19:44:44.200Z,77.70
2017-08-10T19:47:12.481Z,77.70
2017-08-10T19:49:40.722Z,77.30
2017-08-10T19:52:08.965Z,77.20
2017-08-10T19:54:38.572Z,76.60
2017-08-10T19:57:06.857Z,76.60
2017-08-10T19:59:35.281Z,76.10
2017-08-10T20:02:03.561Z,76.10
2017-08-10T20:04:31.823Z,76.10
2017-08-10T20:07:00.106Z,76.30
2017-08-10T20:09:28.367Z,76.30
2017-08-10T20:11:56.639Z,76.10
2017-08-10T20:14:24.858Z,75.70
2017-08-10T20:16:53.114Z,76.00
2017-08-10T20:19:21.360Z,75.60
2017-08-10T20:21:49.593Z,76.00
2017-08-10T20:24:17.865Z,75.60
2017-08-10T20:26:46.118Z,74.70
2017-08-10T20:29:14.363Z,74.60
2017-08-10T20:31:42.594Z,74.50
2017-08-10T20:34:10.892Z,74.20
2017-08-10T20:36:39.112Z,74.10
2017-08-10T20:39:07.411Z,74.20
2017-08-10T20:41:35.662Z,74.10
2017-08-10T20:44:03.960Z,74.50
2017-08-10T20:46:32.195Z,74.40
2017-08-10T20:49:00.465Z,74.10
2017-08-10T20:51:28.769Z,74.40
2017-08-10T20:53:57.017Z,74.40
2017-08-10T20:56:25.316Z,74.10
2017-08-10T20:58:53.576Z,73.70
2017-08-10T21:01:21.832Z,73.50
2017-08-10T21:03:50.082Z,73.00
2017-08-10T21:06:18.335Z,73.30
2017-08-10T21:08:46.565Z,73.10
2017-08-10T21:11:14.896Z,73.10
2017-08-10T21:13:44.265Z,72.70
2017-08-10T21:16:13.200Z,73.10
2017-08-10T21:18:41.484Z,72.10
2017-08-10T21:21:10.583Z,72.00
2017-08-10T21:23:38.871Z,72.00
2017-08-10T21:26:07.142Z,71.80
2017-08-10T21:28:35.406Z,71.30
2017-08-10T21:31:03.694Z,71.50
2017-08-10T21:33:31.965Z,72.20
2017-08-10T21:36:00.232Z,72.10
2017-08-10T21:38:28.474Z,71.60
2017-08-10T21:40:56.753Z,71.20
2017-08-10T21:43:24.985Z,71.50
2017-08-10T21:45:53.310Z,71.60
2017-08-10T21:48:21.578Z,70.90
2017-08-10T21:50:49.840Z,70.50
2017-08-10T21:53:18.110Z,70.60
2017-08-10T21:55:46.392Z,70.20
2017-08-10T21:58:14.616Z,70.70
2017-08-10T22:00:42.907Z,70.60
2017-08-10T22:03:11.198Z,71.60
2017-08-10T22:05:39.980Z,70.40
2017-08-10T22:08:08.593Z,70.80
2017-08-10T22:10:36.914Z,70.90
2017-08-10T22:13:05.152Z,71.20
2017-08-10T22:15:33.418Z,70.90
2017-08-10T22:18:01.787Z,71.10
2017-08-10T22:20:30.018Z,70.80
2017-08-10T22:22:58.269Z,70.80
2017-08-10T22:25:26.522Z,71.00
2017-08-10T22:27:54.777Z,71.10
2017-08-10T22:30:23.045Z,70.90
2017-08-10T22:32:51.317Z,71.30
2017-08-10T22:35:19.577Z,71.00
2017-08-10T22:37:47.845Z,71.40
2017-08-10T22:40:16.130Z,71.30
2017-08-10T22:42:44.437Z,71.80
2017-08-10T22:45:12.679Z,71.60
2017-08-10T22:47:40.961Z,71.60
2017-08-10T22:50:09.189Z,71.90
2017-08-10T22:52:37.465Z,71.30
2017-08-10T22:55:05.784Z,71.80
2017-08-10T22:57:34.037Z,71.40
2017-08-10T23:00:02.272Z,71.40
2017-08-10T23:02:31.252Z,70.30
2017-08-10T23:04:59.463Z,70.20
2017-08-10T23:07:27.725Z,70.40
2017-08-10T23:09:56.129Z,69.90
2017-08-10T23:12:24.377Z,69.90
2017-08-10T23:14:52.747Z,69.60
2017-08-10T23:17:21.015Z,69.90
2017-08-10T23:19:49.269Z,70.00
2017-08-10T23:22:17.516Z,70.00
2017-08-10T23:24:45.818Z,69.90
2017-08-10T23:27:14.050Z,69.50
2017-08-10T23:29:42.372Z,69.70
2017-08-10T23:32:10.595Z,69.70
2017-08-10T23:34:38.885Z,70.00
2017-08-10T23:37:07.129Z,70.00
2017-08-10T23:39:35.379Z,69.90
2017-08-10T23:42:03.647Z,69.60
2017-08-10T23:44:31.889Z,69.20
2017-08-10T23:47:00.171Z,68.70
2017-08-10T23:49:28.420Z,68.80
2017-08-10T23:51:56.671Z,69.10
2017-08-10T23:54:24.907Z,68.90
2017-08-10T23:56:53.202Z,69.00
2017-08-10T23:59:21.491Z,69.70
